Time;durP1;ratioP1;P1;durP2;ratioP2;P2;SDS_P1;SDS_P2;PMS_P1;PMS_P2;Temp;Humidity;BMP_temperature;BMP_pressure;BME280_temperature;BME280_humidity;BME280_pressure;Samples;Min_cycle;Max_cycle;Signal;HPM_P1;HPM_P2
2021/12/21 00:00:35;;;;;;;42.73;24.03;;;9.10;64.70;;;;;;4952812;28;20256;-86
2021/12/21 00:03:02;;;;;;;64.23;27.97;;;9.10;65.10;;;;;;4954382;28;20330;-87
2021/12/21 00:05:30;;;;;;;41.67;24.17;;;9.10;64.80;;;;;;4955886;28;20295;-87
2021/12/21 00:07:59;;;;;;;68.93;27.53;;;9.10;64.70;;;;;;4954449;28;20740;-87
2021/12/21 00:10:29;;;;;;;49.10;26.53;;;9.10;64.30;;;;;;4954483;28;20292;-87
2021/12/21 00:13:08;;;;;;;49.83;26.87;;;9.10;63.70;;;;;;4957845;28;20236;-86
2021/12/21 00:15:47;;;;;;;57.00;29.80;;;9.10;63.80;;;;;;4951130;28;20217;-87
2021/12/21 00:18:26;;;;;;;55.57;26.13;;;9.10;64.10;;;;;;4955325;28;20262;-87
2021/12/21 00:21:00;;;;;;;62.87;29.23;;;9.10;64.20;;;;;;4948618;28;21155;-87
2021/12/21 00:23:33;;;;;;;55.77;28.33;;;9.00;64.20;;;;;;4936085;28;20280;-86
2021/12/21 00:26:03;;;;;;;65.50;28.17;;;9.10;64.20;;;;;;4934292;28;20237;-87
2021/12/21 00:28:36;;;;;;;43.33;24.23;;;9.10;63.80;;;;;;4934866;28;20318;-87
2021/12/21 00:31:03;;;;;;;46.03;29.73;;;9.00;63.60;;;;;;4939848;28;20293;-86
2021/12/21 00:33:30;;;;;;;57.27;28.97;;;9.00;63.80;;;;;;4947320;28;20241;-87
2021/12/21 00:35:57;;;;;;;44.47;25.73;;;9.00;64.30;;;;;;4932001;29;20257;-87
2021/12/21 00:38:24;;;;;;;67.67;31.40;;;9.00;64.40;;;;;;4937855;28;20226;-86
2021/12/21 00:40:51;;;;;;;42.87;30.20;;;9.00;64.80;;;;;;4931004;29;20223;-88
2021/12/21 00:43:18;;;;;;;61.60;29.77;;;9.00;65.00;;;;;;4943461;28;20325;-86
2021/12/21 00:45:46;;;;;;;36.53;27.10;;;9.00;64.80;;;;;;4931721;29;20340;-87
2021/12/21 00:48:15;;;;;;;54.93;29.53;;;9.00;64.50;;;;;;4937589;28;20271;-86
2021/12/21 00:50:43;;;;;;;50.73;28.43;;;9.00;64.50;;;;;;4938512;28;20202;-86
2021/12/21 00:53:10;;;;;;;52.33;28.23;;;9.00;64.40;;;;;;4948157;28;20244;-87
2021/12/21 00:55:37;;;;;;;44.50;28.60;;;9.00;64.50;;;;;;4930580;28;21127;-87
2021/12/21 00:58:04;;;;;;;57.00;29.27;;;9.00;64.40;;;;;;4930993;28;20297;-87
2021/12/21 01:00:31;;;;;;;44.83;28.53;;;9.00;64.70;;;;;;4944699;28;20607;-87
2021/12/21 01:03:06;;;;;;;36.23;26.17;;;9.00;64.80;;;;;;4949698;28;20296;-86
2021/12/21 01:05:40;;;;;;;48.20;25.97;;;9.00;64.70;;;;;;4945782;28;20241;-87
2021/12/21 01:08:09;;;;;;;43.47;24.40;;;9.00;64.80;;;;;;4950595;28;20622;-86
2021/12/21 01:13:45;;;;;;;46.80;27.67;;;9.00;64.80;;;;;;4873065;29;20232;-86
2021/12/21 01:16:20;;;;;;;48.60;26.60;;;9.00;64.90;;;;;;4883933;29;20282;-87
2021/12/21 01:19:05;;;;;;;44.63;26.13;;;9.00;64.80;;;;;;4920663;28;20231;-87
2021/12/21 01:21:38;;;;;;;46.17;28.60;;;8.90;65.00;;;;;;4934171;29;20214;-87
2021/12/21 01:27:01;;;;;;;59.47;27.23;;;8.90;65.30;;;;;;4951579;28;20233;-87
2021/12/21 01:29:35;;;;;;;41.47;25.17;;;8.90;65.30;;;;;;4942808;28;20751;-87
2021/12/21 01:32:08;;;;;;;48.73;24.27;;;8.90;65.50;;;;;;4942151;28;20209;-87
2021/12/21 01:34:46;;;;;;;72.23;25.50;;;8.90;65.80;;;;;;4945953;28;20311;-87
2021/12/21 01:37:21;;;;;;;41.70;26.13;;;8.90;65.80;;;;;;4952455;28;20221;-87
2021/12/21 01:40:09;;;;;;;44.40;25.60;;;8.90;65.80;;;;;;4935958;28;20319;-87
2021/12/21 01:42:53;;;;;;;42.53;26.00;;;8.90;65.80;;;;;;4937847;28;20239;-88
2021/12/21 01:51:08;;;;;;;45.93;23.60;;;8.80;65.60;;;;;;4912461;29;20360;-86
2021/12/21 01:53:36;;;;;;;56.87;27.73;;;8.80;65.50;;;;;;4937136;28;20208;-87
2021/12/21 01:56:04;;;;;;;47.20;27.30;;;8.80;65.60;;;;;;4944434;28;20211;-87
2021/12/21 01:58:33;;;;;;;36.40;27.77;;;8.80;65.70;;;;;;4934139;28;20341;-86
2021/12/21 02:01:00;;;;;;;44.73;26.53;;;8.80;65.80;;;;;;4951317;28;20242;-87
2021/12/21 02:03:27;;;;;;;47.90;26.40;;;8.80;66.20;;;;;;4952694;28;20249;-87
2021/12/21 02:05:54;;;;;;;57.67;27.37;;;8.80;66.10;;;;;;4951108;28;20285;-86
2021/12/21 02:08:23;;;;;;;45.47;24.90;;;8.80;66.00;;;;;;4952308;28;20296;-86
2021/12/21 02:10:50;;;;;;;44.70;24.63;;;8.70;66.70;;;;;;4943373;28;20273;-87
2021/12/21 02:13:17;;;;;;;41.83;24.53;;;8.70;65.90;;;;;;4944791;28;20546;-87
2021/12/21 02:15:44;;;;;;;54.53;26.63;;;8.70;65.90;;;;;;4950015;28;20269;-86
2021/12/21 02:18:32;;;;;;;51.67;26.90;;;8.70;65.80;;;;;;4947861;28;20591;-86
2021/12/21 02:21:06;;;;;;;52.37;28.30;;;8.60;65.50;;;;;;4952710;28;20235;-86
2021/12/21 02:23:36;;;;;;;53.10;28.13;;;8.60;65.60;;;;;;4937964;28;20626;-85
2021/12/21 02:26:34;;;;;;;49.23;26.90;;;8.50;65.60;;;;;;4942357;28;20203;-86
2021/12/21 02:29:15;;;;;;;42.83;27.87;;;8.50;65.50;;;;;;4952256;28;20254;-86
2021/12/21 02:31:47;;;;;;;38.00;28.23;;;8.40;65.50;;;;;;4945566;28;20207;-87
2021/12/21 02:34:15;;;;;;;42.33;28.53;;;8.40;66.20;;;;;;4952814;28;20738;-87
2021/12/21 02:36:45;;;;;;;46.13;28.63;;;8.30;65.40;;;;;;4950546;28;20643;-87
2021/12/21 02:39:13;;;;;;;44.37;29.33;;;8.30;65.50;;;;;;4946988;28;20256;-87
2021/12/21 02:41:41;;;;;;;51.23;27.23;;;8.20;65.50;;;;;;4935901;28;20294;-87
2021/12/21 02:44:08;;;;;;;42.97;28.13;;;8.20;65.60;;;;;;4942106;28;20641;-87
2021/12/21 02:46:39;;;;;;;46.37;30.90;;;8.10;65.50;;;;;;4949255;28;20281;-86
2021/12/21 02:49:06;;;;;;;64.37;33.80;;;8.10;65.50;;;;;;4934123;28;20268;-86
2021/12/21 02:51:33;;;;;;;42.80;24.53;;;8.00;65.40;;;;;;4945751;28;20697;-87
2021/12/21 02:54:01;;;;;;;52.23;33.53;;;8.00;65.40;;;;;;4933615;29;20315;-86
2021/12/21 02:56:28;;;;;;;50.27;33.17;;;7.90;65.60;;;;;;4949092;28;20270;-88
2021/12/21 02:58:55;;;;;;;50.33;34.73;;;7.80;65.70;;;;;;4937862;28;20323;-87
2021/12/21 03:01:22;;;;;;;40.90;31.93;;;7.80;65.80;;;;;;4951217;28;20303;-87
2021/12/21 03:03:49;;;;;;;55.27;30.57;;;7.70;66.00;;;;;;4950819;28;20267;-87
2021/12/21 03:06:42;;;;;;;51.03;33.50;;;7.70;66.10;;;;;;4951224;28;20907;-87
2021/12/21 03:09:28;;;;;;;50.93;34.77;;;7.60;66.00;;;;;;4948556;28;20231;-86
2021/12/21 03:11:57;;;;;;;100.13;34.20;;;7.60;66.00;;;;;;4941030;28;20299;-87
2021/12/21 03:14:25;;;;;;;48.73;34.10;;;7.50;65.90;;;;;;4952530;28;20231;-86
2021/12/21 03:16:52;;;;;;;51.63;34.00;;;7.50;66.00;;;;;;4951989;28;20268;-86
2021/12/21 03:19:19;;;;;;;47.13;30.67;;;7.40;66.70;;;;;;4935675;28;20755;-87
2021/12/21 03:21:46;;;;;;;47.57;34.07;;;7.40;66.20;;;;;;4945048;28;20205;-86
2021/12/21 03:24:14;;;;;;;66.93;33.07;;;7.30;66.30;;;;;;4946769;28;20764;-88
2021/12/21 03:26:41;;;;;;;58.23;36.03;;;7.20;66.20;;;;;;4941704;28;20212;-86
2021/12/21 03:29:09;;;;;;;44.43;35.10;;;7.20;66.30;;;;;;4933239;28;20305;-87
2021/12/21 03:31:36;;;;;;;67.20;39.30;;;7.20;66.50;;;;;;4940963;28;20208;-86
2021/12/21 03:34:03;;;;;;;45.53;34.37;;;7.10;66.40;;;;;;4932827;29;20307;-86
2021/12/21 03:36:31;;;;;;;42.87;33.67;;;7.10;66.70;;;;;;4939867;28;20288;-86
2021/12/21 03:39:03;;;;;;;45.23;34.97;;;7.00;66.80;;;;;;4947421;28;20254;-87
2021/12/21 03:41:33;;;;;;;59.83;38.83;;;7.00;66.80;;;;;;4946388;28;20208;-86
2021/12/21 03:44:01;;;;;;;49.57;36.33;;;6.90;66.50;;;;;;4933710;28;20791;-87
2021/12/21 03:46:31;;;;;;;60.87;35.83;;;6.90;66.50;;;;;;4938691;28;20207;-86
2021/12/21 03:48:59;;;;;;;50.10;43.30;;;6.90;66.60;;;;;;4947246;28;20688;-86
2021/12/21 03:51:26;;;;;;;67.73;37.47;;;6.80;66.60;;;;;;4933112;28;20291;-87
2021/12/21 03:53:53;;;;;;;41.13;36.60;;;6.80;66.80;;;;;;4945130;28;20721;-87
2021/12/21 03:59:05;;;;;;;46.43;38.63;;;6.60;66.70;;;;;;4951034;28;20221;-87
2021/12/21 04:01:32;;;;;;;47.40;36.73;;;6.60;66.90;;;;;;4947067;28;20736;-87
2021/12/21 04:03:59;;;;;;;75.00;38.87;;;6.50;67.00;;;;;;4941594;28;20319;-86
2021/12/21 04:06:26;;;;;;;48.27;32.27;;;6.50;67.20;;;;;;4939371;28;20294;-86
2021/12/21 04:08:53;;;;;;;58.37;37.17;;;6.40;67.30;;;;;;4942644;28;20307;-86
2021/12/21 04:11:20;;;;;;;46.17;37.87;;;6.40;67.40;;;;;;4944496;28;20213;-87
2021/12/21 04:13:47;;;;;;;61.73;37.83;;;6.30;67.40;;;;;;4936103;28;20308;-86
2021/12/21 04:16:16;;;;;;;46.80;40.73;;;6.30;67.50;;;;;;4947838;28;20207;-86
2021/12/21 04:18:43;;;;;;;72.80;41.70;;;6.30;67.70;;;;;;4948326;28;20323;-86
2021/12/21 04:21:13;;;;;;;54.70;42.83;;;6.20;67.70;;;;;;4933313;28;20403;-86
2021/12/21 04:23:40;;;;;;;53.87;43.20;;;6.20;67.90;;;;;;4937119;28;20290;-87
2021/12/21 04:26:07;;;;;;;63.53;39.10;;;6.20;67.80;;;;;;4934219;28;20216;-85
2021/12/21 04:28:34;;;;;;;47.40;42.93;;;6.10;67.80;;;;;;4945586;28;20228;-87
2021/12/21 04:31:01;;;;;;;93.20;43.20;;;6.10;67.90;;;;;;4949038;28;20243;-87
2021/12/21 04:33:30;;;;;;;44.47;38.50;;;6.10;68.00;;;;;;4942111;28;20620;-87
2021/12/21 04:35:57;;;;;;;58.03;45.17;;;6.00;68.60;;;;;;4932677;29;20251;-86
2021/12/21 04:38:28;;;;;;;54.70;36.33;;;6.00;67.70;;;;;;4934448;28;20322;-87
2021/12/21 04:41:02;;;;;;;47.20;39.60;;;6.00;67.70;;;;;;4931130;29;20251;-86
2021/12/21 04:43:29;;;;;;;51.77;43.53;;;6.00;67.80;;;;;;4941066;28;20875;-86
2021/12/21 04:45:56;;;;;;;51.57;41.40;;;5.90;67.80;;;;;;4950293;28;20306;-87
2021/12/21 04:48:23;;;;;;;50.80;39.40;;;5.90;68.00;;;;;;4931030;28;20306;-87
2021/12/21 04:50:51;;;;;;;55.50;47.27;;;5.90;68.00;;;;;;4931834;29;20268;-87
2021/12/21 04:53:18;;;;;;;49.33;43.50;;;5.80;67.90;;;;;;4938509;28;20246;-86
2021/12/21 04:55:45;;;;;;;50.73;45.57;;;5.70;67.80;;;;;;4946732;28;20287;-86
2021/12/21 04:58:12;;;;;;;48.93;42.30;;;5.70;68.00;;;;;;4947656;28;20266;-87
2021/12/21 05:00:41;;;;;;;51.00;45.83;;;5.70;68.20;;;;;;4931581;28;20292;-86
2021/12/21 05:03:08;;;;;;;50.30;42.90;;;5.70;68.20;;;;;;4945545;28;20643;-86
2021/12/21 05:05:35;;;;;;;72.17;45.80;;;5.60;68.10;;;;;;4937160;28;20299;-87
2021/12/21 05:08:08;;;;;;;46.17;39.53;;;5.60;68.20;;;;;;4943877;28;20232;-86
2021/12/21 05:10:44;;;;;;;68.67;44.03;;;5.60;68.20;;;;;;4946066;28;20217;-87
2021/12/21 05:13:11;;;;;;;51.60;46.00;;;5.60;68.30;;;;;;4941724;28;20663;-87
2021/12/21 05:15:38;;;;;;;47.70;43.17;;;5.50;68.30;;;;;;4949685;28;20296;-87
2021/12/21 05:18:05;;;;;;;62.93;54.57;;;5.40;68.20;;;;;;4937352;28;20715;-86
2021/12/21 05:20:32;;;;;;;55.77;50.80;;;5.40;68.30;;;;;;4933695;28;20770;-86
2021/12/21 05:22:59;;;;;;;81.17;50.93;;;5.40;68.60;;;;;;4934046;28;20212;-86
2021/12/21 05:25:27;;;;;;;53.37;47.20;;;5.40;68.50;;;;;;4951008;28;20207;-87
2021/12/21 05:27:54;;;;;;;72.40;51.30;;;5.30;68.50;;;;;;4947574;28;20282;-87
2021/12/21 05:30:22;;;;;;;56.93;51.77;;;5.30;68.60;;;;;;4933360;28;20251;-87
2021/12/21 05:32:49;;;;;;;58.20;48.17;;;5.30;68.70;;;;;;4939638;28;20576;-86
2021/12/21 05:35:16;;;;;;;63.07;56.93;;;5.20;68.60;;;;;;4941019;28;20231;-87
2021/12/21 05:37:43;;;;;;;62.07;55.83;;;5.20;68.60;;;;;;4946714;28;20204;-86
2021/12/21 05:40:14;;;;;;;58.27;53.23;;;5.20;68.80;;;;;;4950424;28;20231;-87
2021/12/21 05:42:43;;;;;;;53.67;47.97;;;5.20;68.80;;;;;;4943945;28;20708;-86
2021/12/21 05:45:12;;;;;;;60.57;54.30;;;5.20;68.80;;;;;;4949896;28;20327;-86
2021/12/21 05:47:40;;;;;;;59.53;53.57;;;5.10;68.70;;;;;;4938789;28;20291;-86
2021/12/21 05:50:10;;;;;;;68.17;54.27;;;5.10;68.70;;;;;;4945128;28;20323;-86
2021/12/21 05:52:37;;;;;;;73.50;57.00;;;5.10;68.70;;;;;;4944921;28;20932;-87
2021/12/21 05:55:06;;;;;;;78.80;56.07;;;5.00;68.70;;;;;;4947013;28;20299;-84
2021/12/21 05:57:33;;;;;;;50.40;44.33;;;5.00;68.90;;;;;;4948830;28;20704;-87
2021/12/21 06:00:02;;;;;;;60.17;48.87;;;5.00;68.90;;;;;;4948511;28;20321;-86
2021/12/21 06:02:29;;;;;;;57.97;51.47;;;5.00;68.90;;;;;;4938687;28;20242;-87
2021/12/21 06:04:56;;;;;;;61.37;51.43;;;4.90;68.80;;;;;;4941719;28;20307;-88
2021/12/21 06:07:23;;;;;;;59.90;53.63;;;4.90;68.90;;;;;;4951178;28;20231;-87
2021/12/21 06:09:50;;;;;;;56.77;51.07;;;4.90;68.80;;;;;;4955527;28;20659;-87
2021/12/21 06:12:31;;;;;;;103.73;59.70;;;4.90;68.80;;;;;;4940317;28;20204;-87
2021/12/21 06:23:36;;;;;;;79.03;53.70;;;4.80;69.10;;;;;;4941047;28;20235;-87
2021/12/21 06:26:07;;;;;;;63.93;57.90;;;4.80;69.20;;;;;;4939152;28;20207;-86
2021/12/21 06:28:34;;;;;;;59.03;53.43;;;4.70;69.80;;;;;;4947332;28;20302;-87
2021/12/21 06:31:02;;;;;;;61.43;55.03;;;4.70;69.20;;;;;;4952346;28;20294;-87
2021/12/21 06:33:30;;;;;;;61.63;55.50;;;4.70;69.20;;;;;;4948919;28;20287;-87
2021/12/21 06:35:57;;;;;;;57.23;51.73;;;4.70;69.30;;;;;;4949964;28;20239;-86
2021/12/21 06:38:25;;;;;;;88.20;61.60;;;4.70;69.30;;;;;;4941212;28;20864;-87
2021/12/21 06:40:53;;;;;;;68.60;61.63;;;4.70;69.20;;;;;;4942077;28;20271;-87
2021/12/21 06:43:20;;;;;;;68.10;56.17;;;4.60;69.00;;;;;;4933059;28;20734;-86
2021/12/21 06:45:53;;;;;;;62.93;55.13;;;4.60;69.10;;;;;;4932896;29;20205;-86
2021/12/21 06:51:14;;;;;;;67.97;60.80;;;4.60;69.20;;;;;;4960506;28;21079;-87
2021/12/21 06:53:44;;;;;;;82.93;67.67;;;4.50;69.10;;;;;;4949994;28;20337;-86
2021/12/21 06:56:12;;;;;;;64.20;58.17;;;4.50;69.10;;;;;;4956731;28;20286;-87
2021/12/21 06:58:39;;;;;;;72.77;59.23;;;4.50;69.20;;;;;;4954346;28;20319;-87
2021/12/21 07:01:07;;;;;;;69.03;62.07;;;4.50;69.30;;;;;;4959589;28;20206;-86
2021/12/21 07:03:34;;;;;;;81.13;60.27;;;4.50;69.40;;;;;;4953841;28;20234;-87
2021/12/21 07:06:05;;;;;;;68.30;61.93;;;4.40;69.30;;;;;;4959789;28;20291;-86
2021/12/21 07:08:43;;;;;;;74.33;64.50;;;4.40;69.30;;;;;;4956373;28;20238;-87
2021/12/21 07:11:16;;;;;;;68.93;63.13;;;4.40;69.40;;;;;;4960131;28;20205;-86
2021/12/21 07:19:13;;;;;;;60.80;54.43;;;4.40;69.30;;;;;;4957163;28;20265;-86
2021/12/21 07:21:40;;;;;;;60.97;55.60;;;4.30;69.10;;;;;;4959395;28;20844;-87
2021/12/21 07:24:09;;;;;;;67.90;60.53;;;4.30;69.10;;;;;;4956911;28;20315;-87
2021/12/21 07:26:37;;;;;;;62.30;57.07;;;4.30;69.20;;;;;;4971554;28;20231;-86
2021/12/21 07:29:04;;;;;;;65.33;58.97;;;4.30;69.20;;;;;;4963067;28;20412;-86
2021/12/21 07:31:31;;;;;;;65.03;59.17;;;4.20;69.20;;;;;;4952306;28;20257;-87
2021/12/21 07:33:59;;;;;;;67.37;60.73;;;4.20;69.40;;;;;;4948239;28;20287;-87
2021/12/21 07:36:26;;;;;;;76.67;69.03;;;4.20;69.50;;;;;;4945963;28;20675;-87
2021/12/21 07:38:53;;;;;;;70.70;63.93;;;4.20;69.40;;;;;;4944156;28;20223;-85
2021/12/21 07:41:22;;;;;;;80.87;74.40;;;4.20;69.50;;;;;;4935297;28;20271;-86
2021/12/21 07:43:49;;;;;;;69.07;62.57;;;4.20;69.80;;;;;;4933557;29;20654;-86
2021/12/21 07:46:16;;;;;;;72.43;66.47;;;4.10;69.60;;;;;;4948752;28;20203;-85
2021/12/21 07:48:43;;;;;;;67.87;62.37;;;4.20;69.80;;;;;;4952888;28;20310;-86
2021/12/21 07:51:11;;;;;;;72.33;64.67;;;4.10;69.60;;;;;;4950767;28;20258;-85
2021/12/21 07:53:38;;;;;;;66.50;60.73;;;4.10;69.70;;;;;;4951947;28;20727;-85
2021/12/21 07:56:06;;;;;;;66.40;60.73;;;4.00;69.60;;;;;;4938982;28;20268;-86
2021/12/21 07:58:35;;;;;;;93.97;80.27;;;4.00;69.70;;;;;;4951261;28;20261;-75
2021/12/21 08:01:05;;;;;;;74.20;67.87;;;4.10;70.00;;;;;;4942589;28;20724;-88
2021/12/21 08:03:34;;;;;;;74.10;66.40;;;4.10;70.00;;;;;;4947395;28;20282;-86
2021/12/21 08:06:02;;;;;;;76.63;70.13;;;4.10;69.90;;;;;;4951149;28;20765;-77
2021/12/21 08:08:30;;;;;;;76.93;71.00;;;4.00;69.90;;;;;;4942549;28;20223;-74
2021/12/21 08:11:11;;;;;;;75.10;69.47;;;4.00;70.00;;;;;;4932047;29;20892;-78
2021/12/21 08:13:41;;;;;;;90.10;73.57;;;4.00;70.10;;;;;;4942057;28;20294;-87
2021/12/21 08:16:09;;;;;;;81.50;74.43;;;4.00;70.10;;;;;;4965697;28;20214;-78
2021/12/21 08:18:36;;;;;;;81.23;72.70;;;4.00;70.10;;;;;;4958917;28;20318;-87
2021/12/21 08:21:03;;;;;;;84.87;78.70;;;4.00;70.10;;;;;;4939529;28;20307;-88
2021/12/21 08:23:30;;;;;;;86.40;79.47;;;4.10;70.20;;;;;;4934172;28;20295;-87
2021/12/21 08:25:57;;;;;;;76.33;69.93;;;4.10;70.10;;;;;;4931893;29;20338;-87
2021/12/21 08:28:25;;;;;;;81.87;74.60;;;4.00;70.10;;;;;;4931110;29;20722;-89
2021/12/21 08:30:53;;;;;;;81.53;75.00;;;4.10;70.10;;;;;;4940449;28;20200;-86
2021/12/21 08:33:20;;;;;;;73.60;67.03;;;4.00;70.10;;;;;;4954073;28;20294;-86
2021/12/21 08:35:47;;;;;;;84.57;77.47;;;4.00;70.10;;;;;;4949915;28;20302;-85
2021/12/21 08:38:17;;;;;;;77.63;69.73;;;4.00;70.10;;;;;;4950636;28;20231;-85
2021/12/21 08:40:49;;;;;;;83.43;76.83;;;4.00;70.20;;;;;;4938290;28;20216;-85
2021/12/21 08:43:18;;;;;;;79.87;72.97;;;4.00;70.40;;;;;;4931376;29;20579;-85
2021/12/21 08:45:47;;;;;;;82.70;75.73;;;4.00;70.40;;;;;;4931737;29;20244;-85
2021/12/21 08:48:16;;;;;;;83.27;74.27;;;4.00;70.40;;;;;;4935949;28;20298;-84
2021/12/21 08:50:47;;;;;;;88.60;80.50;;;4.00;70.40;;;;;;4952404;28;20214;-84
2021/12/21 08:53:15;;;;;;;83.80;76.40;;;4.00;70.50;;;;;;4951135;28;20631;-86
2021/12/21 08:55:43;;;;;;;80.27;73.87;;;4.00;70.60;;;;;;4950488;28;20302;-86
2021/12/21 08:58:11;;;;;;;79.77;73.03;;;4.00;70.70;;;;;;4949389;28;20202;-84
2021/12/21 09:00:38;;;;;;;76.70;70.60;;;4.00;70.80;;;;;;4931084;28;20681;-84
2021/12/21 09:03:06;;;;;;;87.00;78.97;;;4.10;71.00;;;;;;4931383;29;20212;-85
2021/12/21 09:05:35;;;;;;;74.90;67.57;;;4.00;71.00;;;;;;4931072;29;20715;-85
2021/12/21 09:08:04;;;;;;;81.07;73.37;;;4.10;71.10;;;;;;4931041;29;20283;-84
2021/12/21 09:10:32;;;;;;;72.90;65.83;;;4.10;71.10;;;;;;4931086;29;20296;-86
2021/12/21 09:13:00;;;;;;;89.73;73.90;;;4.10;71.10;;;;;;4931683;28;20238;-85
2021/12/21 09:15:28;;;;;;;79.47;72.33;;;4.10;71.20;;;;;;4967068;28;20239;-85
2021/12/21 09:17:56;;;;;;;86.13;76.47;;;4.10;71.20;;;;;;4958182;28;20286;-84
2021/12/21 09:20:25;;;;;;;66.37;61.47;;;4.10;71.20;;;;;;4950560;28;20290;-85
2021/12/21 09:22:54;;;;;;;80.33;73.83;;;4.10;71.30;;;;;;4950241;28;20319;-85
2021/12/21 09:25:23;;;;;;;70.70;64.30;;;4.20;71.40;;;;;;4950277;28;20246;-84
2021/12/21 09:27:51;;;;;;;77.43;69.93;;;4.20;71.40;;;;;;4947001;28;20258;-85
2021/12/21 09:30:20;;;;;;;73.77;65.27;;;4.20;71.40;;;;;;4941668;28;20230;-85
2021/12/21 09:32:48;;;;;;;143.50;77.27;;;4.10;71.40;;;;;;4942927;28;20259;-85
2021/12/21 09:35:15;;;;;;;75.73;68.17;;;4.20;71.60;;;;;;4943253;28;20330;-84
2021/12/21 09:37:42;;;;;;;76.70;70.33;;;4.20;71.60;;;;;;4942123;28;20300;-84
2021/12/21 09:40:14;;;;;;;105.63;77.50;;;4.20;71.60;;;;;;4931291;28;20237;-85
2021/12/21 09:42:42;;;;;;;72.83;66.60;;;4.30;71.80;;;;;;4936923;28;20325;-84
2021/12/21 09:45:10;;;;;;;79.27;71.07;;;4.30;71.70;;;;;;4935298;29;20242;-85
2021/12/21 09:47:37;;;;;;;69.27;63.80;;;4.30;71.70;;;;;;4941193;28;20234;-85
2021/12/21 09:50:05;;;;;;;76.97;70.23;;;4.40;71.80;;;;;;4953644;28;21016;-84
2021/12/21 09:52:33;;;;;;;72.00;65.77;;;4.30;71.60;;;;;;4953513;28;20208;-85
2021/12/21 09:55:00;;;;;;;77.97;71.20;;;4.40;71.70;;;;;;4954105;28;20215;-86
2021/12/21 09:57:29;;;;;;;71.93;64.97;;;4.40;71.70;;;;;;4949062;28;20287;-85
2021/12/21 09:59:56;;;;;;;72.83;64.87;;;4.40;71.60;;;;;;4934459;29;20343;-84
2021/12/21 10:02:26;;;;;;;77.93;71.00;;;4.50;71.70;;;;;;4934181;29;20303;-84
2021/12/21 10:04:56;;;;;;;64.03;57.50;;;4.50;71.70;;;;;;4934061;29;20323;-85
2021/12/21 10:07:23;;;;;;;73.57;66.27;;;4.50;71.70;;;;;;4934199;29;20200;-84
2021/12/21 10:10:01;;;;;;;61.40;56.03;;;4.50;72.40;;;;;;4934246;29;20259;-86
2021/12/21 10:12:32;;;;;;;82.43;74.23;;;4.50;71.60;;;;;;4934219;29;20715;-85
2021/12/21 10:15:07;;;;;;;76.30;68.13;;;4.60;71.60;;;;;;4962587;28;20242;-84
2021/12/21 10:17:35;;;;;;;75.27;68.33;;;4.60;71.70;;;;;;4966353;28;20286;-84
2021/12/21 10:20:04;;;;;;;75.07;68.27;;;4.60;71.80;;;;;;4953046;28;20231;-85
2021/12/21 10:22:31;;;;;;;59.57;53.53;;;4.60;71.60;;;;;;4953075;28;20806;-84
2021/12/21 10:24:58;;;;;;;69.40;62.87;;;4.70;71.60;;;;;;4952885;28;20310;-84
2021/12/21 10:27:26;;;;;;;79.07;71.07;;;4.70;71.50;;;;;;4949844;28;20204;-84
2021/12/21 10:29:57;;;;;;;81.33;72.77;;;4.70;71.50;;;;;;4933641;29;20263;-85
2021/12/21 10:32:26;;;;;;;65.53;59.73;;;4.70;71.40;;;;;;4934078;29;20219;-85
2021/12/21 10:34:56;;;;;;;61.47;55.73;;;4.80;71.30;;;;;;4933687;29;20248;-85
2021/12/21 10:37:27;;;;;;;73.40;67.00;;;4.80;71.10;;;;;;4940466;28;20247;-85
2021/12/21 10:40:07;;;;;;;71.10;63.43;;;4.80;71.00;;;;;;4952513;28;20310;-84
2021/12/21 10:42:45;;;;;;;64.87;58.30;;;4.80;71.00;;;;;;4953299;28;20207;-85
2021/12/21 10:45:14;;;;;;;80.03;71.53;;;4.90;71.10;;;;;;4952906;28;20258;-84
2021/12/21 10:47:44;;;;;;;81.23;74.90;;;4.90;71.00;;;;;;4943735;28;20239;-84
2021/12/21 10:50:12;;;;;;;66.33;59.77;;;4.90;71.00;;;;;;4932986;29;20232;-85
2021/12/21 10:52:41;;;;;;;72.53;55.70;;;5.00;71.20;;;;;;4936307;28;20290;-83
2021/12/21 10:55:08;;;;;;;73.80;66.57;;;5.00;71.20;;;;;;4945550;28;20306;-84
2021/12/21 10:57:36;;;;;;;61.10;55.33;;;5.00;71.10;;;;;;4951799;28;20302;-84
2021/12/21 11:00:08;;;;;;;74.73;60.80;;;5.00;71.10;;;;;;4935464;28;20224;-85
2021/12/21 11:02:37;;;;;;;68.73;62.40;;;5.10;71.00;;;;;;4933689;29;20318;-84
2021/12/21 11:05:06;;;;;;;66.30;60.77;;;5.10;71.00;;;;;;4933590;29;20278;-84
2021/12/21 11:07:39;;;;;;;63.43;57.60;;;5.20;71.20;;;;;;4940743;28;20238;-84
2021/12/21 11:10:12;;;;;;;59.50;54.33;;;5.20;71.10;;;;;;4933416;29;20232;-84
2021/12/21 11:12:45;;;;;;;56.50;50.83;;;5.30;71.10;;;;;;4933508;29;20208;-85
2021/12/21 11:15:15;;;;;;;62.87;55.27;;;5.30;71.50;;;;;;4932938;29;20267;-84
2021/12/21 11:17:44;;;;;;;61.03;54.87;;;5.40;72.00;;;;;;4941268;28;20291;-84
2021/12/21 11:20:13;;;;;;;56.77;50.90;;;5.40;73.40;;;;;;4951466;28;20267;-84
2021/12/21 11:22:42;;;;;;;58.67;49.23;;;5.60;73.50;;;;;;4951387;28;20286;-84
2021/12/21 11:25:11;;;;;;;56.10;51.10;;;5.80;74.00;;;;;;4952465;28;20292;-84
2021/12/21 11:27:39;;;;;;;55.60;48.70;;;5.90;74.10;;;;;;4954466;28;20836;-85
2021/12/21 11:30:08;;;;;;;122.63;52.57;;;6.10;74.10;;;;;;4940468;28;20311;-84
2021/12/21 11:32:42;;;;;;;52.37;43.20;;;6.30;73.50;;;;;;4932076;29;20297;-85
2021/12/21 11:37:59;;;;;;;54.43;38.07;;;6.70;72.80;;;;;;4938755;28;20233;-84
2021/12/21 11:40:28;;;;;;;59.80;39.13;;;7.00;72.60;;;;;;4946384;28;20280;-84
2021/12/21 11:43:06;;;;;;;46.80;36.73;;;7.30;72.50;;;;;;4951924;28;20687;-84
2021/12/21 11:45:37;;;;;;;62.07;33.67;;;7.60;71.50;;;;;;4947887;28;20801;-84
2021/12/21 11:48:18;;;;;;;68.43;32.70;;;7.90;71.90;;;;;;4943845;28;20206;-85
2021/12/21 11:50:49;;;;;;;45.80;31.87;;;8.10;69.10;;;;;;4932543;29;20303;-83
2021/12/21 11:53:18;;;;;;;44.20;31.87;;;8.40;69.40;;;;;;4933354;29;20298;-85
2021/12/21 11:55:48;;;;;;;45.30;31.37;;;8.60;68.80;;;;;;4931200;29;20687;-85
2021/12/21 11:58:18;;;;;;;44.13;28.07;;;8.90;68.20;;;;;;4932726;29;20318;-85
2021/12/21 12:00:51;;;;;;;39.07;22.83;;;9.10;67.20;;;;;;4932543;29;20302;-83
2021/12/21 12:03:22;;;;;;;43.50;25.83;;;9.40;66.00;;;;;;4932006;29;20228;-85
2021/12/21 12:05:57;;;;;;;36.50;20.67;;;9.60;66.10;;;;;;4932101;29;20243;-84
2021/12/21 12:08:26;;;;;;;42.07;22.63;;;9.80;64.70;;;;;;4932571;29;20306;-84
2021/12/21 12:10:56;;;;;;;41.77;20.90;;;10.10;63.20;;;;;;4932801;29;20828;-86
2021/12/21 12:13:32;;;;;;;45.43;20.60;;;10.20;62.30;;;;;;4937497;28;20287;-80
